sensor_id;sensor_type;location;lat;lon;timestamp;P1;P2;P0
76679;PMS5003;65597;51.520;-0.224;2023-03-09T00:00:16;28;25;
76679;PMS5003;65597;51.520;-0.224;2023-03-09T00:02:41;25;25;
76679;PMS5003;65597;51.520;-0.224;2023-03-09T00:05:09;30;25;
76679;PMS5003;65597;51.520;-0.224;2023-03-09T00:07:32;35;26;
76679;PMS5003;65597;51.520;-0.224;2023-03-09T00:09:59;30;26;
76679;PMS5003;65597;51.520;-0.224;2023-03-09T00:12:24;23;23;
76679;PMS5003;65597;51.520;-0.224;2023-03-09T00:14:51;24;21;
76679;PMS5003;65597;51.520;-0.224;2023-03-09T00:17:14;29;25;
76679;PMS5003;65597;51.520;-0.224;2023-03-09T00:19:40;24;21;
76679;PMS5003;65597;51.520;-0.224;2023-03-09T00:22:05;27;24;
76679;PMS5003;65597;51.520;-0.224;2023-03-09T00:24:33;27;26;
76679;PMS5003;65597;51.520;-0.224;2023-03-09T00:26:58;26;22;
76679;PMS5003;65597;51.520;-0.224;2023-03-09T00:29:22;24;20;
76679;PMS5003;65597;51.520;-0.224;2023-03-09T00:31:47;21;21;
76679;PMS5003;65597;51.520;-0.224;2023-03-09T00:34:14;21;20;
76679;PMS5003;65597;51.520;-0.224;2023-03-09T00:36:40;22;21;
76679;PMS5003;65597;51.520;-0.224;2023-03-09T00:39:04;24;23;
76679;PMS5003;65597;51.520;-0.224;2023-03-09T00:41:30;22;22;
76679;PMS5003;65597;51.520;-0.224;2023-03-09T00:43:56;26;22;
76679;PMS5003;65597;51.520;-0.224;2023-03-09T00:46:22;22;19;
76679;PMS5003;65597;51.520;-0.224;2023-03-09T00:48:48;17;16;
76679;PMS5003;65597;51.520;-0.224;2023-03-09T00:51:12;25;23;
76679;PMS5003;65597;51.520;-0.224;2023-03-09T00:53:37;20;20;
76679;PMS5003;65597;51.520;-0.224;2023-03-09T00:56:03;20;19;
76679;PMS5003;65597;51.520;-0.224;2023-03-09T00:58:28;20;20;
76679;PMS5003;65597;51.520;-0.224;2023-03-09T01:00:54;24;23;
76679;PMS5003;65597;51.520;-0.224;2023-03-09T01:03:19;24;22;
76679;PMS5003;65597;51.520;-0.224;2023-03-09T01:05:44;21;20;
76679;PMS5003;65597;51.520;-0.224;2023-03-09T01:08:10;21;19;
76679;PMS5003;65597;51.520;-0.224;2023-03-09T01:10:37;24;22;
76679;PMS5003;65597;51.520;-0.224;2023-03-09T01:13:03;22;20;
76679;PMS5003;65597;51.520;-0.224;2023-03-09T01:15:27;21;19;
76679;PMS5003;65597;51.520;-0.224;2023-03-09T01:17:53;21;21;
76679;PMS5003;65597;51.520;-0.224;2023-03-09T01:20:18;24;19;
76679;PMS5003;65597;51.520;-0.224;2023-03-09T01:22:44;23;19;
76679;PMS5003;65597;51.520;-0.224;2023-03-09T01:25:11;20;19;
76679;PMS5003;65597;51.520;-0.224;2023-03-09T01:27:36;24;20;
76679;PMS5003;65597;51.520;-0.224;2023-03-09T01:30:01;19;18;
76679;PMS5003;65597;51.520;-0.224;2023-03-09T01:32:27;21;20;
76679;PMS5003;65597;51.520;-0.224;2023-03-09T01:34:52;21;19;
76679;PMS5003;65597;51.520;-0.224;2023-03-09T01:37:18;20;19;
76679;PMS5003;65597;51.520;-0.224;2023-03-09T01:39:44;21;18;
76679;PMS5003;65597;51.520;-0.224;2023-03-09T01:42:09;22;19;
76679;PMS5003;65597;51.520;-0.224;2023-03-09T01:44:35;21;21;
76679;PMS5003;65597;51.520;-0.224;2023-03-09T01:47:00;20;20;
76679;PMS5003;65597;51.520;-0.224;2023-03-09T01:49:32;22;21;
76679;PMS5003;65597;51.520;-0.224;2023-03-09T01:51:54;24;20;
76679;PMS5003;65597;51.520;-0.224;2023-03-09T01:54:19;23;21;
76679;PMS5003;65597;51.520;-0.224;2023-03-09T01:56:42;23;21;
76679;PMS5003;65597;51.520;-0.224;2023-03-09T01:59:08;22;20;
76679;PMS5003;65597;51.520;-0.224;2023-03-09T02:01:34;19;18;
76679;PMS5003;65597;51.520;-0.224;2023-03-09T02:04:00;17;17;
76679;PMS5003;65597;51.520;-0.224;2023-03-09T02:06:25;19;18;
76679;PMS5003;65597;51.520;-0.224;2023-03-09T02:08:52;28;21;
76679;PMS5003;65597;51.520;-0.224;2023-03-09T02:11:16;25;22;
76679;PMS5003;65597;51.520;-0.224;2023-03-09T02:13:43;18;18;
76679;PMS5003;65597;51.520;-0.224;2023-03-09T02:16:07;25;21;
76679;PMS5003;65597;51.520;-0.224;2023-03-09T02:18:32;19;18;
76679;PMS5003;65597;51.520;-0.224;2023-03-09T02:21:00;22;22;
76679;PMS5003;65597;51.520;-0.224;2023-03-09T02:23:25;20;19;
76679;PMS5003;65597;51.520;-0.224;2023-03-09T02:25:51;20;18;
76679;PMS5003;65597;51.520;-0.224;2023-03-09T02:28:14;24;22;
76679;PMS5003;65597;51.520;-0.224;2023-03-09T02:30:39;28;20;
76679;PMS5003;65597;51.520;-0.224;2023-03-09T02:33:05;21;20;
76679;PMS5003;65597;51.520;-0.224;2023-03-09T02:35:30;21;19;
76679;PMS5003;65597;51.520;-0.224;2023-03-09T02:37:55;25;21;
76679;PMS5003;65597;51.520;-0.224;2023-03-09T02:40:23;17;17;
76679;PMS5003;65597;51.520;-0.224;2023-03-09T02:42:47;24;19;
76679;PMS5003;65597;51.520;-0.224;2023-03-09T02:45:12;22;20;
76679;PMS5003;65597;51.520;-0.224;2023-03-09T02:47:37;22;20;
76679;PMS5003;65597;51.520;-0.224;2023-03-09T02:50:03;21;19;
76679;PMS5003;65597;51.520;-0.224;2023-03-09T02:52:29;19;18;
76679;PMS5003;65597;51.520;-0.224;2023-03-09T02:54:54;19;18;
76679;PMS5003;65597;51.520;-0.224;2023-03-09T02:57:20;20;18;
76679;PMS5003;65597;51.520;-0.224;2023-03-09T02:59:45;20;19;
76679;PMS5003;65597;51.520;-0.224;2023-03-09T03:02:12;23;20;
76679;PMS5003;65597;51.520;-0.224;2023-03-09T03:04:36;23;21;
76679;PMS5003;65597;51.520;-0.224;2023-03-09T03:07:02;21;20;
76679;PMS5003;65597;51.520;-0.224;2023-03-09T03:09:27;22;19;
76679;PMS5003;65597;51.520;-0.224;2023-03-09T03:11:52;18;18;
76679;PMS5003;65597;51.520;-0.224;2023-03-09T03:14:19;17;16;
76679;PMS5003;65597;51.520;-0.224;2023-03-09T03:16:43;19;18;
76679;PMS5003;65597;51.520;-0.224;2023-03-09T03:19:09;24;22;
76679;PMS5003;65597;51.520;-0.224;2023-03-09T03:21:34;24;20;
76679;PMS5003;65597;51.520;-0.224;2023-03-09T03:23:59;18;18;
76679;PMS5003;65597;51.520;-0.224;2023-03-09T03:26:26;17;16;
76679;PMS5003;65597;51.520;-0.224;2023-03-09T03:28:50;19;18;
76679;PMS5003;65597;51.520;-0.224;2023-03-09T03:31:15;18;18;
76679;PMS5003;65597;51.520;-0.224;2023-03-09T03:33:41;17;17;
76679;PMS5003;65597;51.520;-0.224;2023-03-09T03:36:07;19;19;
76679;PMS5003;65597;51.520;-0.224;2023-03-09T03:38:31;24;20;
76679;PMS5003;65597;51.520;-0.224;2023-03-09T03:40:57;16;16;
76679;PMS5003;65597;51.520;-0.224;2023-03-09T03:43:23;19;18;
76679;PMS5003;65597;51.520;-0.224;2023-03-09T03:45:48;23;21;
76679;PMS5003;65597;51.520;-0.224;2023-03-09T03:48:14;19;19;
76679;PMS5003;65597;51.520;-0.224;2023-03-09T03:50:41;22;19;
76679;PMS5003;65597;51.520;-0.224;2023-03-09T03:53:05;23;22;
76679;PMS5003;65597;51.520;-0.224;2023-03-09T03:55:31;22;18;
76679;PMS5003;65597;51.520;-0.224;2023-03-09T03:57:56;23;20;
76679;PMS5003;65597;51.520;-0.224;2023-03-09T04:00:22;21;20;
76679;PMS5003;65597;51.520;-0.224;2023-03-09T04:02:47;25;23;
76679;PMS5003;65597;51.520;-0.224;2023-03-09T04:05:13;20;20;
76679;PMS5003;65597;51.520;-0.224;2023-03-09T04:07:39;21;20;
76679;PMS5003;65597;51.520;-0.224;2023-03-09T04:10:05;29;24;
76679;PMS5003;65597;51.520;-0.224;2023-03-09T04:12:30;23;21;
76679;PMS5003;65597;51.520;-0.224;2023-03-09T04:14:57;23;20;
76679;PMS5003;65597;51.520;-0.224;2023-03-09T04:17:20;24;23;
76679;PMS5003;65597;51.520;-0.224;2023-03-09T04:19:46;19;19;
76679;PMS5003;65597;51.520;-0.224;2023-03-09T04:22:12;22;21;
76679;PMS5003;65597;51.520;-0.224;2023-03-09T04:24:37;23;22;
76679;PMS5003;65597;51.520;-0.224;2023-03-09T04:27:04;22;19;
76679;PMS5003;65597;51.520;-0.224;2023-03-09T04:29:29;22;21;
76679;PMS5003;65597;51.520;-0.224;2023-03-09T04:31:54;25;23;
76679;PMS5003;65597;51.520;-0.224;2023-03-09T04:34:20;25;21;
76679;PMS5003;65597;51.520;-0.224;2023-03-09T04:36:46;23;22;
76679;PMS5003;65597;51.520;-0.224;2023-03-09T04:39:11;23;20;
76679;PMS5003;65597;51.520;-0.224;2023-03-09T04:41:37;21;19;
76679;PMS5003;65597;51.520;-0.224;2023-03-09T04:44:03;21;20;
76679;PMS5003;65597;51.520;-0.224;2023-03-09T04:46:28;25;22;
76679;PMS5003;65597;51.520;-0.224;2023-03-09T04:48:54;23;22;
76679;PMS5003;65597;51.520;-0.224;2023-03-09T04:51:19;25;23;
76679;PMS5003;65597;51.520;-0.224;2023-03-09T04:53:45;21;21;
76679;PMS5003;65597;51.520;-0.224;2023-03-09T04:56:10;24;22;
76679;PMS5003;65597;51.520;-0.224;2023-03-09T04:58:36;21;21;
76679;PMS5003;65597;51.520;-0.224;2023-03-09T05:01:01;19;18;
76679;PMS5003;65597;51.520;-0.224;2023-03-09T05:03:27;28;23;
76679;PMS5003;65597;51.520;-0.224;2023-03-09T05:05:51;21;20;
76679;PMS5003;65597;51.520;-0.224;2023-03-09T05:08:17;29;23;
76679;PMS5003;65597;51.520;-0.224;2023-03-09T05:10:42;26;24;
76679;PMS5003;65597;51.520;-0.224;2023-03-09T05:13:07;28;22;
76679;PMS5003;65597;51.520;-0.224;2023-03-09T05:15:33;23;22;
76679;PMS5003;65597;51.520;-0.224;2023-03-09T05:17:58;22;20;
76679;PMS5003;65597;51.520;-0.224;2023-03-09T05:20:24;19;19;
76679;PMS5003;65597;51.520;-0.224;2023-03-09T05:22:49;32;28;
76679;PMS5003;65597;51.520;-0.224;2023-03-09T05:25:15;24;23;
76679;PMS5003;65597;51.520;-0.224;2023-03-09T05:27:41;22;21;
76679;PMS5003;65597;51.520;-0.224;2023-03-09T05:30:06;24;23;
76679;PMS5003;65597;51.520;-0.224;2023-03-09T05:32:31;25;25;
76679;PMS5003;65597;51.520;-0.224;2023-03-09T05:34:57;27;23;
76679;PMS5003;65597;51.520;-0.224;2023-03-09T05:37:22;24;21;
76679;PMS5003;65597;51.520;-0.224;2023-03-09T05:39:50;25;20;
76679;PMS5003;65597;51.520;-0.224;2023-03-09T05:42:13;25;23;
76679;PMS5003;65597;51.520;-0.224;2023-03-09T05:44:38;27;25;
76679;PMS5003;65597;51.520;-0.224;2023-03-09T05:47:04;29;26;
76679;PMS5003;65597;51.520;-0.224;2023-03-09T05:49:30;30;22;
76679;PMS5003;65597;51.520;-0.224;2023-03-09T05:51:56;25;24;
76679;PMS5003;65597;51.520;-0.224;2023-03-09T05:54:20;30;28;
76679;PMS5003;65597;51.520;-0.224;2023-03-09T05:56:45;31;28;
76679;PMS5003;65597;51.520;-0.224;2023-03-09T05:59:10;35;29;
76679;PMS5003;65597;51.520;-0.224;2023-03-09T06:01:36;28;27;
76679;PMS5003;65597;51.520;-0.224;2023-03-09T06:04:02;27;23;
76679;PMS5003;65597;51.520;-0.224;2023-03-09T06:06:27;23;23;
76679;PMS5003;65597;51.520;-0.224;2023-03-09T06:08:52;33;27;
76679;PMS5003;65597;51.520;-0.224;2023-03-09T06:11:18;25;22;
76679;PMS5003;65597;51.520;-0.224;2023-03-09T06:13:43;29;25;
76679;PMS5003;65597;51.520;-0.224;2023-03-09T06:16:11;35;29;
76679;PMS5003;65597;51.520;-0.224;2023-03-09T06:18:34;25;25;
76679;PMS5003;65597;51.520;-0.224;2023-03-09T06:21:00;25;23;
76679;PMS5003;65597;51.520;-0.224;2023-03-09T06:23:26;31;27;
76679;PMS5003;65597;51.520;-0.224;2023-03-09T06:25:51;24;23;
76679;PMS5003;65597;51.520;-0.224;2023-03-09T06:28:18;35;30;
76679;PMS5003;65597;51.520;-0.224;2023-03-09T06:30:42;29;28;
76679;PMS5003;65597;51.520;-0.224;2023-03-09T06:33:07;28;24;
76679;PMS5003;65597;51.520;-0.224;2023-03-09T06:35:33;34;26;
76679;PMS5003;65597;51.520;-0.224;2023-03-09T06:37:58;34;32;
76679;PMS5003;65597;51.520;-0.224;2023-03-09T06:40:26;24;24;
76679;PMS5003;65597;51.520;-0.224;2023-03-09T06:42:49;31;25;
76679;PMS5003;65597;51.520;-0.224;2023-03-09T06:45:14;33;30;
76679;PMS5003;65597;51.520;-0.224;2023-03-09T06:47:40;30;28;
76679;PMS5003;65597;51.520;-0.224;2023-03-09T06:50:05;30;28;
76679;PMS5003;65597;51.520;-0.224;2023-03-09T06:52:30;27;24;
76679;PMS5003;65597;51.520;-0.224;2023-03-09T06:54:56;31;28;
76679;PMS5003;65597;51.520;-0.224;2023-03-09T06:57:22;31;29;
76679;PMS5003;65597;51.520;-0.224;2023-03-09T06:59:47;31;28;
76679;PMS5003;65597;51.520;-0.224;2023-03-09T07:02:12;28;27;
76679;PMS5003;65597;51.520;-0.224;2023-03-09T07:04:38;26;23;
76679;PMS5003;65597;51.520;-0.224;2023-03-09T07:07:03;35;29;
76679;PMS5003;65597;51.520;-0.224;2023-03-09T07:09:28;42;33;
76679;PMS5003;65597;51.520;-0.224;2023-03-09T07:11:53;28;24;
76679;PMS5003;65597;51.520;-0.224;2023-03-09T07:14:19;31;28;
76679;PMS5003;65597;51.520;-0.224;2023-03-09T07:16:50;33;24;
76679;PMS5003;65597;51.520;-0.224;2023-03-09T07:19:10;36;34;
76679;PMS5003;65597;51.520;-0.224;2023-03-09T07:21:35;29;28;
76679;PMS5003;65597;51.520;-0.224;2023-03-09T07:24:00;34;29;
76679;PMS5003;65597;51.520;-0.224;2023-03-09T07:26:26;36;30;
76679;PMS5003;65597;51.520;-0.224;2023-03-09T07:28:53;26;25;
76679;PMS5003;65597;51.520;-0.224;2023-03-09T07:31:17;33;30;
76679;PMS5003;65597;51.520;-0.224;2023-03-09T07:33:42;28;24;
76679;PMS5003;65597;51.520;-0.224;2023-03-09T07:36:08;38;33;
76679;PMS5003;65597;51.520;-0.224;2023-03-09T07:38:33;33;29;
76679;PMS5003;65597;51.520;-0.224;2023-03-09T07:40:59;33;32;
76679;PMS5003;65597;51.520;-0.224;2023-03-09T07:43:24;31;28;
76679;PMS5003;65597;51.520;-0.224;2023-03-09T07:45:49;32;30;
76679;PMS5003;65597;51.520;-0.224;2023-03-09T07:48:15;30;26;
76679;PMS5003;65597;51.520;-0.224;2023-03-09T07:50:40;30;28;
76679;PMS5003;65597;51.520;-0.224;2023-03-09T07:53:06;33;31;
76679;PMS5003;65597;51.520;-0.224;2023-03-09T07:55:31;25;24;
76679;PMS5003;65597;51.520;-0.224;2023-03-09T07:57:57;31;28;
76679;PMS5003;65597;51.520;-0.224;2023-03-09T08:00:23;29;26;
76679;PMS5003;65597;51.520;-0.224;2023-03-09T08:02:48;35;31;
76679;PMS5003;65597;51.520;-0.224;2023-03-09T08:05:13;30;28;
76679;PMS5003;65597;51.520;-0.224;2023-03-09T08:07:39;25;25;
76679;PMS5003;65597;51.520;-0.224;2023-03-09T08:10:05;32;29;
76679;PMS5003;65597;51.520;-0.224;2023-03-09T08:12:30;31;27;
76679;PMS5003;65597;51.520;-0.224;2023-03-09T08:14:56;20;18;
76679;PMS5003;65597;51.520;-0.224;2023-03-09T08:17:23;35;30;
76679;PMS5003;65597;51.520;-0.224;2023-03-09T08:19:48;27;24;
76679;PMS5003;65597;51.520;-0.224;2023-03-09T08:22:13;29;27;
76679;PMS5003;65597;51.520;-0.224;2023-03-09T08:24:38;29;27;
76679;PMS5003;65597;51.520;-0.224;2023-03-09T08:27:04;25;24;
76679;PMS5003;65597;51.520;-0.224;2023-03-09T08:29:31;27;23;
76679;PMS5003;65597;51.520;-0.224;2023-03-09T08:31:55;30;28;
76679;PMS5003;65597;51.520;-0.224;2023-03-09T08:34:20;25;24;
76679;PMS5003;65597;51.520;-0.224;2023-03-09T08:36:46;32;27;
76679;PMS5003;65597;51.520;-0.224;2023-03-09T08:39:11;25;23;
76679;PMS5003;65597;51.520;-0.224;2023-03-09T08:41:38;24;21;
76679;PMS5003;65597;51.520;-0.224;2023-03-09T08:44:03;25;25;
76679;PMS5003;65597;51.520;-0.224;2023-03-09T08:46:28;29;24;
76679;PMS5003;65597;51.520;-0.224;2023-03-09T08:48:53;26;24;
76679;PMS5003;65597;51.520;-0.224;2023-03-09T08:51:19;27;23;
76679;PMS5003;65597;51.520;-0.224;2023-03-09T08:53:46;20;19;
76679;PMS5003;65597;51.520;-0.224;2023-03-09T08:56:10;26;25;
76679;PMS5003;65597;51.520;-0.224;2023-03-09T08:58:35;22;21;
76679;PMS5003;65597;51.520;-0.224;2023-03-09T09:01:00;26;25;
76679;PMS5003;65597;51.520;-0.224;2023-03-09T09:03:27;24;23;
76679;PMS5003;65597;51.520;-0.224;2023-03-09T09:05:53;31;28;
76679;PMS5003;65597;51.520;-0.224;2023-03-09T09:08:17;30;26;
76679;PMS5003;65597;51.520;-0.224;2023-03-09T09:10:42;28;24;
76679;PMS5003;65597;51.520;-0.224;2023-03-09T09:13:08;29;23;
76679;PMS5003;65597;51.520;-0.224;2023-03-09T09:15:33;29;25;
76679;PMS5003;65597;51.520;-0.224;2023-03-09T09:18:00;26;25;
76679;PMS5003;65597;51.520;-0.224;2023-03-09T09:20:24;26;22;
76679;PMS5003;65597;51.520;-0.224;2023-03-09T09:22:50;19;19;
76679;PMS5003;65597;51.520;-0.224;2023-03-09T09:25:15;22;20;
76679;PMS5003;65597;51.520;-0.224;2023-03-09T09:27:40;24;22;
76679;PMS5003;65597;51.520;-0.224;2023-03-09T09:30:08;21;20;
76679;PMS5003;65597;51.520;-0.224;2023-03-09T09:32:31;24;21;
76679;PMS5003;65597;51.520;-0.224;2023-03-09T09:34:57;20;19;
76679;PMS5003;65597;51.520;-0.224;2023-03-09T09:37:23;22;19;
76679;PMS5003;65597;51.520;-0.224;2023-03-09T09:39:48;25;20;
76679;PMS5003;65597;51.520;-0.224;2023-03-09T09:42:20;19;18;
76679;PMS5003;65597;51.520;-0.224;2023-03-09T09:44:40;15;13;
76679;PMS5003;65597;51.520;-0.224;2023-03-09T09:47:05;13;13;
76679;PMS5003;65597;51.520;-0.224;2023-03-09T09:49:30;15;15;
76679;PMS5003;65597;51.520;-0.224;2023-03-09T09:52:00;19;19;
76679;PMS5003;65597;51.520;-0.224;2023-03-09T09:54:24;17;15;
76679;PMS5003;65597;51.520;-0.224;2023-03-09T09:56:47;24;21;
76679;PMS5003;65597;51.520;-0.224;2023-03-09T09:59:13;14;14;
76679;PMS5003;65597;51.520;-0.224;2023-03-09T10:01:39;18;16;
76679;PMS5003;65597;51.520;-0.224;2023-03-09T10:04:05;16;16;
76679;PMS5003;65597;51.520;-0.224;2023-03-09T10:06:29;14;14;
76679;PMS5003;65597;51.520;-0.224;2023-03-09T10:08:54;23;19;
76679;PMS5003;65597;51.520;-0.224;2023-03-09T10:11:21;21;19;
76679;PMS5003;65597;51.520;-0.224;2023-03-09T10:13:45;14;14;
76679;PMS5003;65597;51.520;-0.224;2023-03-09T10:16:11;20;20;
76679;PMS5003;65597;51.520;-0.224;2023-03-09T10:18:37;15;13;
76679;PMS5003;65597;51.520;-0.224;2023-03-09T10:21:01;20;19;
76679;PMS5003;65597;51.520;-0.224;2023-03-09T10:23:29;12;12;
76679;PMS5003;65597;51.520;-0.224;2023-03-09T10:25:54;18;16;
76679;PMS5003;65597;51.520;-0.224;2023-03-09T10:28:19;15;14;
76679;PMS5003;65597;51.520;-0.224;2023-03-09T10:30:44;16;15;
76679;PMS5003;65597;51.520;-0.224;2023-03-09T10:33:12;18;16;
76679;PMS5003;65597;51.520;-0.224;2023-03-09T10:35:36;17;15;
76679;PMS5003;65597;51.520;-0.224;2023-03-09T10:38:00;15;15;
76679;PMS5003;65597;51.520;-0.224;2023-03-09T10:40:27;18;16;
76679;PMS5003;65597;51.520;-0.224;2023-03-09T10:42:53;19;18;
76679;PMS5003;65597;51.520;-0.224;2023-03-09T10:45:21;14;13;
76679;PMS5003;65597;51.520;-0.224;2023-03-09T10:47:51;19;17;
76679;PMS5003;65597;51.520;-0.224;2023-03-09T10:50:09;15;14;
76679;PMS5003;65597;51.520;-0.224;2023-03-09T10:52:33;18;18;
76679;PMS5003;65597;51.520;-0.224;2023-03-09T10:55:00;18;17;
76679;PMS5003;65597;51.520;-0.224;2023-03-09T10:57:26;24;20;
76679;PMS5003;65597;51.520;-0.224;2023-03-09T10:59:54;20;19;
76679;PMS5003;65597;51.520;-0.224;2023-03-09T11:02:25;20;19;
76679;PMS5003;65597;51.520;-0.224;2023-03-09T11:04:42;16;15;
76679;PMS5003;65597;51.520;-0.224;2023-03-09T11:09:33;15;15;
76679;PMS5003;65597;51.520;-0.224;2023-03-09T11:12:07;13;13;
76679;PMS5003;65597;51.520;-0.224;2023-03-09T11:14:24;24;18;
76679;PMS5003;65597;51.520;-0.224;2023-03-09T11:16:49;17;15;
76679;PMS5003;65597;51.520;-0.224;2023-03-09T11:19:17;17;16;
76679;PMS5003;65597;51.520;-0.224;2023-03-09T11:21:42;17;16;
76679;PMS5003;65597;51.520;-0.224;2023-03-09T11:24:06;19;17;
76679;PMS5003;65597;51.520;-0.224;2023-03-09T11:26:31;22;22;
76679;PMS5003;65597;51.520;-0.224;2023-03-09T11:28:57;21;14;
76679;PMS5003;65597;51.520;-0.224;2023-03-09T11:31:22;17;14;
76679;PMS5003;65597;51.520;-0.224;2023-03-09T11:33:47;27;22;
76679;PMS5003;65597;51.520;-0.224;2023-03-09T11:36:13;27;24;
76679;PMS5003;65597;51.520;-0.224;2023-03-09T11:38:37;18;18;
76679;PMS5003;65597;51.520;-0.224;2023-03-09T11:41:05;22;22;
76679;PMS5003;65597;51.520;-0.224;2023-03-09T11:43:28;16;16;
76679;PMS5003;65597;51.520;-0.224;2023-03-09T11:45:54;18;18;
76679;PMS5003;65597;51.520;-0.224;2023-03-09T11:48:20;19;19;
76679;PMS5003;65597;51.520;-0.224;2023-03-09T11:50:44;19;18;
76679;PMS5003;65597;51.520;-0.224;2023-03-09T11:53:10;16;16;
76679;PMS5003;65597;51.520;-0.224;2023-03-09T11:55:35;19;18;
76679;PMS5003;65597;51.520;-0.224;2023-03-09T11:58:02;22;22;
76679;PMS5003;65597;51.520;-0.224;2023-03-09T12:00:26;19;19;
76679;PMS5003;65597;51.520;-0.224;2023-03-09T12:02:54;18;17;
76679;PMS5003;65597;51.520;-0.224;2023-03-09T12:05:17;23;21;
76679;PMS5003;65597;51.520;-0.224;2023-03-09T12:07:45;19;18;
76679;PMS5003;65597;51.520;-0.224;2023-03-09T12:10:08;27;20;
76679;PMS5003;65597;51.520;-0.224;2023-03-09T12:12:33;27;21;
76679;PMS5003;65597;51.520;-0.224;2023-03-09T12:15:00;24;20;
76679;PMS5003;65597;51.520;-0.224;2023-03-09T12:17:24;22;21;
76679;PMS5003;65597;51.520;-0.224;2023-03-09T12:19:51;25;21;
76679;PMS5003;65597;51.520;-0.224;2023-03-09T12:22:15;29;22;
76679;PMS5003;65597;51.520;-0.224;2023-03-09T12:24:40;19;19;
76679;PMS5003;65597;51.520;-0.224;2023-03-09T12:27:13;23;22;
76679;PMS5003;65597;51.520;-0.224;2023-03-09T12:29:34;22;17;
76679;PMS5003;65597;51.520;-0.224;2023-03-09T12:34:24;21;21;
76679;PMS5003;65597;51.520;-0.224;2023-03-09T12:36:48;20;19;
76679;PMS5003;65597;51.520;-0.224;2023-03-09T12:44:06;21;20;
76679;PMS5003;65597;51.520;-0.224;2023-03-09T12:48:56;19;18;
76679;PMS5003;65597;51.520;-0.224;2023-03-09T12:51:25;25;22;
76679;PMS5003;65597;51.520;-0.224;2023-03-09T12:56:16;19;17;
76679;PMS5003;65597;51.520;-0.224;2023-03-09T12:58:40;27;22;
76679;PMS5003;65597;51.520;-0.224;2023-03-09T13:01:03;28;25;
76679;PMS5003;65597;51.520;-0.224;2023-03-09T13:03:29;25;22;
76679;PMS5003;65597;51.520;-0.224;2023-03-09T13:05:54;23;19;
76679;PMS5003;65597;51.520;-0.224;2023-03-09T13:08:21;24;21;
76679;PMS5003;65597;51.520;-0.224;2023-03-09T13:10:45;20;19;
76679;PMS5003;65597;51.520;-0.224;2023-03-09T13:15:37;22;19;
76679;PMS5003;65597;51.520;-0.224;2023-03-09T13:18:03;23;22;
76679;PMS5003;65597;51.520;-0.224;2023-03-09T13:20:33;23;23;
76679;PMS5003;65597;51.520;-0.224;2023-03-09T13:22:53;17;17;
76679;PMS5003;65597;51.520;-0.224;2023-03-09T13:25:22;23;22;
76679;PMS5003;65597;51.520;-0.224;2023-03-09T13:27:44;28;25;
76679;PMS5003;65597;51.520;-0.224;2023-03-09T13:30:16;33;25;
76679;PMS5003;65597;51.520;-0.224;2023-03-09T13:32:38;27;23;
76679;PMS5003;65597;51.520;-0.224;2023-03-09T13:35:01;29;26;
76679;PMS5003;65597;51.520;-0.224;2023-03-09T13:37:27;29;26;
76679;PMS5003;65597;51.520;-0.224;2023-03-09T13:39:56;26;24;
76679;PMS5003;65597;51.520;-0.224;2023-03-09T13:42:17;25;24;
76679;PMS5003;65597;51.520;-0.224;2023-03-09T13:44:45;26;24;
76679;PMS5003;65597;51.520;-0.224;2023-03-09T13:49:34;36;29;
76679;PMS5003;65597;51.520;-0.224;2023-03-09T13:51:59;33;28;
76679;PMS5003;65597;51.520;-0.224;2023-03-09T13:54:26;30;26;
76679;PMS5003;65597;51.520;-0.224;2023-03-09T13:56:58;25;23;
76679;PMS5003;65597;51.520;-0.224;2023-03-09T13:59:15;23;22;
76679;PMS5003;65597;51.520;-0.224;2023-03-09T14:01:41;31;26;
76679;PMS5003;65597;51.520;-0.224;2023-03-09T14:06:32;28;26;
76679;PMS5003;65597;51.520;-0.224;2023-03-09T14:09:00;24;23;
76679;PMS5003;65597;51.520;-0.224;2023-03-09T14:11:22;34;30;
76679;PMS5003;65597;51.520;-0.224;2023-03-09T14:13:49;41;36;
76679;PMS5003;65597;51.520;-0.224;2023-03-09T14:16:13;34;31;
76679;PMS5003;65597;51.520;-0.224;2023-03-09T14:18:40;36;33;
76679;PMS5003;65597;51.520;-0.224;2023-03-09T14:21:05;35;34;
76679;PMS5003;65597;51.520;-0.224;2023-03-09T14:23:33;36;32;
76679;PMS5003;65597;51.520;-0.224;2023-03-09T14:25:55;37;33;
76679;PMS5003;65597;51.520;-0.224;2023-03-09T14:28:24;22;19;
76679;PMS5003;65597;51.520;-0.224;2023-03-09T14:30:46;11;10;
76679;PMS5003;65597;51.520;-0.224;2023-03-09T14:33:22;13;10;
76679;PMS5003;65597;51.520;-0.224;2023-03-09T14:35:38;6;5;
76679;PMS5003;65597;51.520;-0.224;2023-03-09T14:38:03;4;3;
76679;PMS5003;65597;51.520;-0.224;2023-03-09T14:40:29;4;3;
76679;PMS5003;65597;51.520;-0.224;2023-03-09T14:42:53;3;3;
76679;PMS5003;65597;51.520;-0.224;2023-03-09T14:45:20;5;4;
76679;PMS5003;65597;51.520;-0.224;2023-03-09T14:47:44;4;3;
76679;PMS5003;65597;51.520;-0.224;2023-03-09T14:50:12;5;2;
76679;PMS5003;65597;51.520;-0.224;2023-03-09T14:52:35;4;3;
76679;PMS5003;65597;51.520;-0.224;2023-03-09T14:55:01;6;4;
76679;PMS5003;65597;51.520;-0.224;2023-03-09T14:57:26;3;2;
76679;PMS5003;65597;51.520;-0.224;2023-03-09T14:59:51;5;4;
76679;PMS5003;65597;51.520;-0.224;2023-03-09T15:02:17;4;3;
76679;PMS5003;65597;51.520;-0.224;2023-03-09T15:04:43;2;2;
76679;PMS5003;65597;51.520;-0.224;2023-03-09T15:07:09;3;2;
76679;PMS5003;65597;51.520;-0.224;2023-03-09T15:09:34;4;3;
76679;PMS5003;65597;51.520;-0.224;2023-03-09T15:11:59;3;1;
76679;PMS5003;65597;51.520;-0.224;2023-03-09T15:14:24;2;2;
76679;PMS5003;65597;51.520;-0.224;2023-03-09T15:16:49;2;1;
76679;PMS5003;65597;51.520;-0.224;2023-03-09T15:19:15;2;2;
76679;PMS5003;65597;51.520;-0.224;2023-03-09T15:21:40;2;2;
76679;PMS5003;65597;51.520;-0.224;2023-03-09T15:24:06;1;1;
76679;PMS5003;65597;51.520;-0.224;2023-03-09T15:26:31;3;2;
76679;PMS5003;65597;51.520;-0.224;2023-03-09T15:28:57;2;2;
76679;PMS5003;65597;51.520;-0.224;2023-03-09T15:31:22;3;2;
76679;PMS5003;65597;51.520;-0.224;2023-03-09T15:33:47;2;2;
76679;PMS5003;65597;51.520;-0.224;2023-03-09T15:36:13;3;1;
76679;PMS5003;65597;51.520;-0.224;2023-03-09T15:38:38;4;3;
76679;PMS5003;65597;51.520;-0.224;2023-03-09T15:41:04;2;2;
76679;PMS5003;65597;51.520;-0.224;2023-03-09T15:43:29;3;2;
76679;PMS5003;65597;51.520;-0.224;2023-03-09T15:45:56;2;2;
76679;PMS5003;65597;51.520;-0.224;2023-03-09T15:48:20;3;3;
76679;PMS5003;65597;51.520;-0.224;2023-03-09T15:50:48;3;2;
76679;PMS5003;65597;51.520;-0.224;2023-03-09T15:53:11;5;3;
76679;PMS5003;65597;51.520;-0.224;2023-03-09T15:55:36;4;4;
76679;PMS5003;65597;51.520;-0.224;2023-03-09T15:58:02;3;2;
76679;PMS5003;65597;51.520;-0.224;2023-03-09T16:00:27;7;6;
76679;PMS5003;65597;51.520;-0.224;2023-03-09T16:02:52;7;6;
76679;PMS5003;65597;51.520;-0.224;2023-03-09T16:05:18;6;6;
76679;PMS5003;65597;51.520;-0.224;2023-03-09T16:07:43;3;3;
76679;PMS5003;65597;51.520;-0.224;2023-03-09T16:10:09;11;5;
76679;PMS5003;65597;51.520;-0.224;2023-03-09T16:12:34;5;5;